createdAt,value
2022-12-20T00:01:36.539Z,97188.28
2022-12-20T00:04:06.625Z,97187.66
2022-12-20T00:06:36.490Z,97191.91
2022-12-20T00:09:06.881Z,97107.97
2022-12-20T00:11:34.968Z,97183.19
2022-12-20T00:14:04.232Z,97183.59
2022-12-20T00:16:32.913Z,97176.06
2022-12-20T00:19:03.370Z,97199.19
2022-12-20T00:21:32.296Z,97191.25
2022-12-20T00:24:00.870Z,97205.44
2022-12-20T00:26:30.539Z,97205.00
2022-12-20T00:28:58.981Z,97196.03
2022-12-20T00:31:30.396Z,97199.88
2022-12-20T00:34:00.112Z,97141.50
2022-12-20T00:36:30.421Z,97198.78
2022-12-20T00:38:59.480Z,97182.34
2022-12-20T00:41:29.225Z,97209.75
2022-12-20T00:43:57.132Z,97202.22
2022-12-20T00:46:26.380Z,97201.88
2022-12-20T00:48:56.857Z,97197.38
2022-12-20T00:51:27.205Z,97194.50
2022-12-20T00:53:55.598Z,97187.38
2022-12-20T00:56:24.161Z,97177.25
2022-12-20T00:58:54.658Z,97203.28
2022-12-20T01:01:25.327Z,97200.22
2022-12-20T01:03:55.801Z,97147.16
2022-12-20T01:06:24.356Z,97199.88
2022-12-20T01:08:52.672Z,97188.50
2022-12-20T01:11:23.081Z,97198.41
2022-12-20T01:13:52.514Z,97195.16
2022-12-20T01:16:25.481Z,97171.44
2022-12-20T01:18:55.595Z,97185.38
2022-12-20T01:21:25.316Z,97180.72
2022-12-20T01:23:53.654Z,97157.03
2022-12-20T01:26:24.165Z,97168.81
2022-12-20T01:28:55.186Z,97162.09
2022-12-20T01:31:23.789Z,97169.38
2022-12-20T01:33:52.524Z,97146.69
2022-12-20T01:36:25.281Z,97098.25
2022-12-20T01:38:57.877Z,97151.34
2022-12-20T01:41:26.565Z,97133.50
2022-12-20T01:43:59.714Z,97098.28
2022-12-20T01:46:30.395Z,97139.69
2022-12-20T01:49:03.410Z,97154.28
2022-12-20T01:51:37.145Z,97153.22
2022-12-20T01:54:11.186Z,97155.88
2022-12-20T01:56:41.240Z,97150.16
2022-12-20T01:59:09.857Z,97003.59
2022-12-20T02:01:37.931Z,97141.63
2022-12-20T02:04:05.952Z,97119.91
2022-12-20T02:06:35.210Z,97140.63
2022-12-20T02:09:05.531Z,97123.38
2022-12-20T02:11:47.941Z,97121.97
2022-12-20T02:14:25.210Z,97063.00
2022-12-20T02:16:58.699Z,97135.16
2022-12-20T02:19:54.859Z,97144.53
2022-12-20T02:22:31.893Z,97124.63
2022-12-20T02:25:25.179Z,97142.91
2022-12-20T02:28:00.057Z,97143.72
2022-12-20T02:30:35.685Z,97111.22
2022-12-20T02:33:05.385Z,97142.03
2022-12-20T02:35:35.500Z,97150.22
2022-12-20T02:38:24.915Z,97129.50
2022-12-20T02:40:57.130Z,97100.91
2022-12-20T02:43:43.583Z,97077.75
2022-12-20T02:46:14.212Z,97025.75
2022-12-20T02:48:43.533Z,97106.38
2022-12-20T02:51:12.879Z,97125.84
2022-12-20T02:53:42.977Z,97126.19
2022-12-20T02:56:17.763Z,97100.63
2022-12-20T02:58:50.897Z,97131.72
2022-12-20T03:01:26.077Z,97099.28
2022-12-20T03:03:55.557Z,97122.41
2022-12-20T03:06:23.448Z,97091.22
2022-12-20T03:08:51.366Z,97117.75
2022-12-20T03:11:20.486Z,97117.38
2022-12-20T03:13:48.449Z,97117.22
2022-12-20T03:16:16.367Z,97104.09
2022-12-20T03:18:46.195Z,97109.22
2022-12-20T03:21:14.415Z,97098.88
2022-12-20T03:23:42.299Z,97117.56
2022-12-20T03:26:10.217Z,97084.47
2022-12-20T03:28:38.157Z,97107.41
2022-12-20T03:31:06.198Z,97105.81
2022-12-20T03:33:34.175Z,97108.69
2022-12-20T03:36:03.415Z,97056.44
2022-12-20T03:38:31.256Z,97108.34
2022-12-20T03:40:59.123Z,97116.69
2022-12-20T03:43:29.120Z,97099.44
2022-12-20T03:45:57.105Z,97083.66
2022-12-20T03:48:25.234Z,97085.88
2022-12-20T03:50:53.102Z,97105.78
2022-12-20T03:53:22.380Z,97105.78
2022-12-20T03:55:50.243Z,97097.25
2022-12-20T03:58:18.140Z,97082.88
2022-12-20T04:00:46.013Z,97086.06
2022-12-20T04:03:13.944Z,97066.22
2022-12-20T04:05:42.177Z,97097.88
2022-12-20T04:08:10.124Z,97083.28
2022-12-20T04:10:59.416Z,97091.41
2022-12-20T04:13:27.251Z,97094.22
2022-12-20T04:15:59.999Z,97088.53
2022-12-20T04:18:28.700Z,97086.28
2022-12-20T04:20:56.573Z,97085.69
2022-12-20T04:23:24.414Z,97089.78
2022-12-20T04:25:53.826Z,97091.81
2022-12-20T04:28:21.777Z,97082.88
2022-12-20T04:30:50.228Z,97061.78
2022-12-20T04:33:18.092Z,97060.94
2022-12-20T04:35:46.014Z,97067.88
2022-12-20T04:38:13.902Z,97045.97
2022-12-20T04:40:41.799Z,97065.44
2022-12-20T04:43:11.128Z,97076.81
2022-12-20T04:45:39.043Z,97083.31
2022-12-20T04:48:37.195Z,97078.44
2022-12-20T04:50:56.031Z,97078.88
2022-12-20T04:53:41.759Z,97078.69
2022-12-20T04:56:09.932Z,97074.81
2022-12-20T04:58:39.148Z,97073.56
2022-12-20T05:01:07.047Z,97072.16
2022-12-20T05:03:34.995Z,97078.91
2022-12-20T05:06:03.106Z,97067.94
2022-12-20T05:08:31.046Z,97048.84
2022-12-20T05:10:58.929Z,97071.38
2022-12-20T05:13:26.872Z,97045.22
2022-12-20T05:15:57.102Z,97063.50
2022-12-20T05:18:25.318Z,97074.47
2022-12-20T05:21:16.566Z,97015.25
2022-12-20T05:24:02.610Z,97075.28
2022-12-20T05:26:33.187Z,97030.28
2022-12-20T05:29:01.032Z,97062.91
2022-12-20T05:31:30.580Z,97073.06
2022-12-20T05:33:58.498Z,97049.53
2022-12-20T05:36:26.412Z,97066.19
2022-12-20T05:38:58.214Z,97010.16
2022-12-20T05:41:31.405Z,97058.25
2022-12-20T05:43:59.396Z,97077.19
2022-12-20T05:46:27.477Z,97069.47
2022-12-20T05:48:56.759Z,97066.84
2022-12-20T05:51:24.724Z,97098.69
2022-12-20T05:53:52.597Z,97078.22
2022-12-20T05:56:20.441Z,97088.97
2022-12-20T05:58:48.648Z,97067.25
2022-12-20T06:01:16.593Z,97087.97
2022-12-20T06:03:45.806Z,97090.38
2022-12-20T13:57:27.201Z,96630.16
2022-12-20T14:00:03.583Z,96634.03
2022-12-20T14:02:37.764Z,96624.34
2022-12-20T14:05:14.778Z,96650.75
2022-12-20T14:07:43.702Z,96644.06
2022-12-20T14:10:20.861Z,96625.09
2022-12-20T14:12:54.438Z,96609.41
2022-12-20T14:15:33.531Z,96636.44
2022-12-20T14:18:07.112Z,96629.19
2022-12-20T14:20:37.109Z,96628.41
2022-12-20T14:23:07.173Z,96633.31
2022-12-20T14:25:43.354Z,96631.88
2022-12-20T14:28:26.970Z,96609.84
2022-12-20T14:30:56.970Z,96575.22
2022-12-20T14:33:31.386Z,96583.47
2022-12-20T14:36:08.225Z,96562.09
2022-12-20T14:38:36.209Z,96618.31
2022-12-20T14:41:04.251Z,96618.72
2022-12-20T14:43:37.913Z,96613.88
2022-12-20T14:46:20.115Z,96617.50
2022-12-20T14:48:48.259Z,96618.75
2022-12-20T14:51:22.139Z,96615.72
2022-12-20T14:53:53.367Z,96619.91
2022-12-20T14:56:31.318Z,96596.88
2022-12-20T14:59:07.991Z,96615.53
2022-12-20T15:01:41.727Z,96593.31
2022-12-20T15:04:24.274Z,96609.91
2022-12-20T15:06:53.358Z,96592.97
2022-12-20T15:09:21.730Z,96611.59
2022-12-20T15:11:51.612Z,96615.34
2022-12-20T15:14:33.006Z,96572.91
2022-12-20T15:17:01.208Z,96577.63
2022-12-20T15:19:31.334Z,96614.22
2022-12-20T15:21:59.350Z,96611.97
2022-12-20T15:24:28.780Z,96605.63
2022-12-20T15:26:57.704Z,96584.94
2022-12-20T15:29:28.783Z,96544.34
2022-12-20T15:32:05.348Z,96596.28
2022-12-20T15:34:36.532Z,96608.09
2022-12-20T15:37:05.887Z,96581.78
2022-12-20T15:39:34.832Z,96548.44
2022-12-20T15:42:05.745Z,96606.25
2022-12-20T15:44:36.164Z,96596.72
2022-12-20T15:47:04.543Z,96610.09
2022-12-20T15:49:33.574Z,96564.06
2022-12-20T15:52:01.461Z,96611.72
2022-12-20T15:54:31.491Z,96585.41
2022-12-20T15:57:02.933Z,96598.72
2022-12-20T16:02:24.644Z,96586.19
2022-12-20T16:04:53.531Z,96607.94
2022-12-20T16:07:21.833Z,96581.75
2022-12-20T16:09:49.870Z,96607.13
2022-12-20T16:12:20.438Z,96573.88
2022-12-20T16:14:48.514Z,96576.03
2022-12-20T16:17:17.088Z,96601.81
2022-12-20T16:19:47.337Z,96543.66
2022-12-20T16:22:17.550Z,96555.06
2022-12-20T16:24:46.325Z,96607.94
2022-12-20T16:27:14.271Z,96583.91
2022-12-20T16:29:42.412Z,96602.59
2022-12-20T16:32:15.563Z,96571.09
2022-12-20T16:34:43.835Z,96562.13
2022-12-20T16:37:13.192Z,96583.31
2022-12-20T16:39:41.425Z,96573.22
2022-12-20T16:42:14.915Z,96595.59
2022-12-20T16:44:45.330Z,96583.47
2022-12-20T16:47:14.653Z,96584.53
2022-12-20T16:49:49.650Z,96563.84
2022-12-20T16:52:22.880Z,96595.31
2022-12-20T16:54:51.348Z,96572.25
2022-12-20T16:57:19.718Z,96573.78
2022-12-20T16:59:47.683Z,96574.38
2022-12-20T17:02:23.668Z,96582.44
2022-12-20T17:04:52.101Z,96580.59
2022-12-20T17:07:21.424Z,96585.81
2022-12-20T17:12:34.756Z,96584.19
2022-12-20T17:15:03.100Z,96568.88
2022-12-20T17:17:30.950Z,96576.13
2022-12-20T17:19:58.960Z,96582.47
2022-12-20T17:25:20.806Z,96517.53
2022-12-20T17:27:48.843Z,96577.03
2022-12-20T17:30:17.021Z,96575.66
2022-12-20T17:32:45.618Z,96554.72
2022-12-20T17:35:30.439Z,96567.50
2022-12-20T17:38:01.863Z,96584.75
2022-12-20T17:40:30.454Z,96567.94
2022-12-20T17:42:58.335Z,96556.31
2022-12-20T17:45:29.801Z,96536.75
2022-12-20T17:47:58.781Z,96587.28
2022-12-20T17:50:27.829Z,96586.72
2022-12-20T17:52:55.879Z,96559.44
2022-12-20T17:55:27.536Z,96588.81
2022-12-20T17:57:56.357Z,96580.28
2022-12-20T18:00:29.636Z,96589.75
2022-12-20T18:03:02.759Z,96589.28
2022-12-20T18:05:31.005Z,96552.56
2022-12-20T18:07:58.948Z,96577.53
2022-12-20T18:10:28.276Z,96566.47
2022-12-20T18:12:56.400Z,96549.41
2022-12-20T18:15:24.386Z,96542.16
2022-12-20T18:17:52.259Z,96573.03
2022-12-20T18:20:20.305Z,96570.53
2022-12-20T18:22:48.253Z,96555.09
2022-12-20T18:25:18.332Z,96569.34
2022-12-20T18:27:47.822Z,96552.91
2022-12-20T18:30:15.954Z,96572.81
2022-12-20T18:32:43.830Z,96574.09
2022-12-20T18:35:12.052Z,96567.19
2022-12-20T18:37:39.925Z,96523.66
2022-12-20T18:40:09.680Z,96540.50
2022-12-20T18:42:37.833Z,96552.91
2022-12-20T18:45:08.212Z,96549.13
2022-12-20T18:47:37.678Z,96554.06
2022-12-20T18:50:06.881Z,96552.47
2022-12-20T18:52:34.839Z,96551.31
2022-12-20T18:55:02.813Z,96550.72
2022-12-20T18:57:30.863Z,96544.28
2022-12-20T18:59:58.892Z,96547.41
2022-12-20T19:02:28.587Z,96505.84
2022-12-20T19:04:57.828Z,96525.91
2022-12-20T19:07:25.951Z,96529.91
2022-12-20T19:09:53.991Z,96536.94
2022-12-20T19:12:21.981Z,96463.72
2022-12-20T19:14:50.221Z,96519.66
2022-12-20T19:17:18.206Z,96529.78
2022-12-20T19:19:47.724Z,96485.94
2022-12-20T19:22:15.620Z,96529.09
2022-12-20T19:24:43.539Z,96528.03
2022-12-20T19:27:11.423Z,96515.16
2022-12-20T19:29:39.333Z,96509.97
2022-12-20T19:32:07.211Z,96523.66
2022-12-20T19:34:35.164Z,96528.50
2022-12-20T19:37:04.416Z,96525.28
2022-12-20T19:39:32.276Z,96511.34
2022-12-20T19:42:22.891Z,96496.75
2022-12-20T19:44:48.664Z,96500.78
2022-12-20T19:47:16.629Z,96501.22
2022-12-20T19:49:44.503Z,96493.88
2022-12-20T19:52:13.776Z,96503.06
2022-12-20T19:54:43.289Z,96499.03
2022-12-20T19:57:11.284Z,96501.38
2022-12-20T19:59:39.129Z,96509.41
2022-12-20T20:02:07.791Z,96507.34
2022-12-20T20:04:35.898Z,96513.09
2022-12-20T20:07:04.618Z,96524.25
2022-12-20T20:09:34.015Z,96515.06
2022-12-20T20:12:02.004Z,96509.41
2022-12-20T20:14:30.412Z,96491.81
2022-12-20T20:16:58.565Z,96497.22
2022-12-20T20:19:26.527Z,96511.03
2022-12-20T20:21:54.396Z,96488.47
2022-12-20T20:24:22.400Z,96503.41
2022-12-20T20:26:51.735Z,96502.97
2022-12-20T20:29:20.368Z,96489.59
2022-12-20T20:31:48.488Z,96441.72
2022-12-20T20:34:16.396Z,96481.09
2022-12-20T20:36:44.258Z,96500.06
2022-12-20T20:39:12.348Z,96496.63
2022-12-20T20:41:40.824Z,96441.28
2022-12-20T20:44:11.800Z,96491.09
2022-12-20T20:46:39.770Z,96434.25
2022-12-20T20:49:07.715Z,96438.06
2022-12-20T20:51:35.602Z,96480.53
2022-12-20T20:54:03.486Z,96496.97
2022-12-20T20:56:31.488Z,96482.34
2022-12-20T20:59:05.860Z,96475.09
2022-12-20T21:01:37.617Z,96494.91
2022-12-20T21:04:06.415Z,96477.50
2022-12-20T21:06:40.929Z,96460.47
2022-12-20T21:09:09.628Z,96431.94
2022-12-20T21:11:37.836Z,96446.44
2022-12-20T21:14:05.974Z,96476.25
2022-12-20T21:16:35.453Z,96437.13
2022-12-20T21:19:05.730Z,96483.50
2022-12-20T21:21:33.700Z,96463.59
2022-12-20T21:24:01.587Z,96476.25
2022-12-20T21:26:29.467Z,96475.56
2022-12-20T21:28:58.862Z,96480.53
2022-12-20T21:31:26.822Z,96472.25
2022-12-20T21:33:55.721Z,96477.28
2022-12-20T21:36:25.129Z,96475.44
2022-12-20T21:38:55.659Z,96463.84
2022-12-20T21:41:25.770Z,96444.25
2022-12-20T21:43:57.750Z,96459.56
2022-12-20T21:46:26.035Z,96465.22
2022-12-20T21:48:54.012Z,96463.03
2022-12-20T21:51:26.508Z,96453.25
2022-12-20T21:53:56.174Z,96445.31
2022-12-20T21:56:25.260Z,96453.72
2022-12-20T21:58:53.188Z,96441.16
2022-12-20T22:01:23.263Z,96458.44
2022-12-20T22:03:52.450Z,96454.28
2022-12-20T22:06:20.957Z,96456.72
2022-12-20T22:08:50.704Z,96430.44
2022-12-20T22:11:19.871Z,96450.16
2022-12-20T22:13:48.328Z,96446.56
2022-12-20T22:16:18.161Z,96452.22
2022-12-20T22:18:50.153Z,96451.72
2022-12-20T22:21:21.577Z,96444.94
2022-12-20T22:23:51.191Z,96399.81
2022-12-20T22:26:21.545Z,96376.94
2022-12-20T22:28:51.738Z,96412.59
2022-12-20T22:31:20.374Z,96406.41
2022-12-20T22:33:49.465Z,96418.25
2022-12-20T22:36:17.752Z,96398.47
2022-12-20T22:38:46.061Z,96385.09
2022-12-20T22:41:17.750Z,96356.13
2022-12-20T22:43:47.350Z,96382.34
2022-12-20T22:46:16.984Z,96401.69
2022-12-20T22:48:45.713Z,96378.06
2022-12-20T22:51:15.563Z,96390.13
2022-12-20T22:53:44.291Z,96374.63
2022-12-20T22:56:13.148Z,96385.63
2022-12-20T22:58:42.328Z,96384.13
2022-12-20T23:01:13.075Z,96382.97
2022-12-20T23:03:41.453Z,96381.38
2022-12-20T23:06:12.845Z,96365.13
2022-12-20T23:08:40.919Z,96287.22
2022-12-20T23:11:49.342Z,96378.13
2022-12-20T23:14:38.003Z,96383.44
2022-12-20T23:17:07.107Z,96364.69
2022-12-20T23:20:04.123Z,96357.06
2022-12-20T23:22:48.721Z,96369.09
2022-12-20T23:25:19.191Z,96346.28
2022-12-20T23:27:49.276Z,96354.91
2022-12-20T23:30:22.599Z,96354.69
2022-12-20T23:32:50.531Z,96357.44
2022-12-20T23:35:20.763Z,96354.53
2022-12-20T23:37:49.419Z,96323.66
2022-12-20T23:40:18.144Z,96347.75
2022-12-20T23:42:46.307Z,96326.50
2022-12-20T23:45:14.582Z,96235.19
2022-12-20T23:47:43.761Z,96333.81
2022-12-20T23:50:12.142Z,96342.00
2022-12-20T23:52:40.550Z,96355.66
2022-12-20T23:55:09.721Z,96357.06
2022-12-20T23:57:37.645Z,96361.53
